sensor_id;sensor_type;location;lat;lon;timestamp;pressure;altitude;pressure_sealevel;temperature;humidity
29733;BME280;16643;43.158;25.302;2023-04-08T00:00:15;98337.53;;;6.54;92.66
29733;BME280;16643;43.158;25.302;2023-04-08T00:02:41;98322.94;;;6.51;91.96
29733;BME280;16643;43.158;25.302;2023-04-08T00:05:07;98292.19;;;6.29;93.25
29733;BME280;16643;43.158;25.302;2023-04-08T00:07:33;98305.88;;;6.35;93.48
29733;BME280;16643;43.158;25.302;2023-04-08T00:09:58;98317.97;;;6.30;92.13
29733;BME280;16643;43.158;25.302;2023-04-08T00:12:24;98312.75;;;6.35;92.99
29733;BME280;16643;43.158;25.302;2023-04-08T00:14:50;98297.31;;;6.32;92.18
29733;BME280;16643;43.158;25.302;2023-04-08T00:17:16;98303.47;;;6.20;92.13
29733;BME280;16643;43.158;25.302;2023-04-08T00:19:42;98308.66;;;6.15;92.78
29733;BME280;16643;43.158;25.302;2023-04-08T00:22:08;98317.13;;;6.30;92.05
29733;BME280;16643;43.158;25.302;2023-04-08T00:24:34;98291.34;;;6.25;92.42
29733;BME280;16643;43.158;25.302;2023-04-08T00:27:00;98298.31;;;6.20;92.49
29733;BME280;16643;43.158;25.302;2023-04-08T00:29:27;98292.31;;;6.16;92.25
29733;BME280;16643;43.158;25.302;2023-04-08T00:31:53;98294.03;;;6.14;92.13
29733;BME280;16643;43.158;25.302;2023-04-08T00:34:19;98297.38;;;6.24;92.46
29733;BME280;16643;43.158;25.302;2023-04-08T00:36:45;98288.00;;;6.15;92.05
29733;BME280;16643;43.158;25.302;2023-04-08T00:39:13;98308.53;;;6.28;93.10
29733;BME280;16643;43.158;25.302;2023-04-08T00:41:39;98290.53;;;6.22;92.71
29733;BME280;16643;43.158;25.302;2023-04-08T00:44:05;98290.50;;;6.25;92.93
29733;BME280;16643;43.158;25.302;2023-04-08T00:46:36;98284.44;;;6.30;92.00
29733;BME280;16643;43.158;25.302;2023-04-08T00:49:03;98299.09;;;6.25;93.01
29733;BME280;16643;43.158;25.302;2023-04-08T00:51:29;98288.84;;;6.21;92.39
29733;BME280;16643;43.158;25.302;2023-04-08T00:53:55;98278.53;;;6.17;93.35
29733;BME280;16643;43.158;25.302;2023-04-08T00:56:22;98272.53;;;6.14;92.51
29733;BME280;16643;43.158;25.302;2023-04-08T00:58:49;98302.50;;;6.29;92.53
29733;BME280;16643;43.158;25.302;2023-04-08T01:04:20;98303.22;;;6.43;91.61
29733;BME280;16643;43.158;25.302;2023-04-08T01:07:00;98290.38;;;6.35;91.75
29733;BME280;16643;43.158;25.302;2023-04-08T01:09:31;98296.44;;;6.33;91.98
29733;BME280;16643;43.158;25.302;2023-04-08T01:11:58;98289.66;;;6.21;92.21
29733;BME280;16643;43.158;25.302;2023-04-08T01:14:29;98297.28;;;6.33;92.75
29733;BME280;16643;43.158;25.302;2023-04-08T01:16:58;98294.78;;;6.26;93.23
29733;BME280;16643;43.158;25.302;2023-04-08T01:19:32;98296.41;;;6.34;92.27
29733;BME280;16643;43.158;25.302;2023-04-08T01:24:44;98288.84;;;6.19;93.22
29733;BME280;16643;43.158;25.302;2023-04-08T01:27:13;98275.09;;;6.18;93.72
29733;BME280;16643;43.158;25.302;2023-04-08T01:29:41;98292.22;;;6.23;93.56
29733;BME280;16643;43.158;25.302;2023-04-08T01:32:08;98283.59;;;6.25;92.90
29733;BME280;16643;43.158;25.302;2023-04-08T01:34:36;98278.56;;;6.16;93.57
29733;BME280;16643;43.158;25.302;2023-04-08T01:37:03;98275.88;;;6.24;94.05
29733;BME280;16643;43.158;25.302;2023-04-08T01:39:30;98258.84;;;6.09;93.62
29733;BME280;16643;43.158;25.302;2023-04-08T01:41:56;98293.94;;;6.25;94.32
29733;BME280;16643;43.158;25.302;2023-04-08T01:44:25;98285.41;;;6.20;93.99
29733;BME280;16643;43.158;25.302;2023-04-08T01:46:52;98290.47;;;6.28;94.82
29733;BME280;16643;43.158;25.302;2023-04-08T01:49:19;98276.00;;;6.13;95.35
29733;BME280;16643;43.158;25.302;2023-04-08T01:51:46;98298.22;;;6.26;95.30
29733;BME280;16643;43.158;25.302;2023-04-08T01:54:12;98293.06;;;6.26;96.08
29733;BME280;16643;43.158;25.302;2023-04-08T01:56:40;98301.66;;;6.27;95.43
29733;BME280;16643;43.158;25.302;2023-04-08T01:59:10;98293.81;;;6.36;97.00
29733;BME280;16643;43.158;25.302;2023-04-08T02:01:38;98305.09;;;6.30;97.46
29733;BME280;16643;43.158;25.302;2023-04-08T02:04:04;98283.63;;;6.22;98.29
29733;BME280;16643;43.158;25.302;2023-04-08T02:06:30;98284.47;;;6.26;97.93
29733;BME280;16643;43.158;25.302;2023-04-08T02:08:56;98274.19;;;6.21;97.88
29733;BME280;16643;43.158;25.302;2023-04-08T02:11:23;98246.84;;;6.03;97.33
29733;BME280;16643;43.158;25.302;2023-04-08T02:13:50;98293.91;;;6.30;97.70
29733;BME280;16643;43.158;25.302;2023-04-08T02:16:30;98272.41;;;6.26;97.33
29733;BME280;16643;43.158;25.302;2023-04-08T02:19:03;98292.06;;;6.41;97.20
29733;BME280;16643;43.158;25.302;2023-04-08T02:21:38;98281.78;;;6.35;97.58
29733;BME280;16643;43.158;25.302;2023-04-08T02:24:07;98287.69;;;6.46;96.97
29733;BME280;16643;43.158;25.302;2023-04-08T02:26:35;98273.19;;;6.33;96.20
29733;BME280;16643;43.158;25.302;2023-04-08T02:29:02;98288.63;;;6.40;97.09
29733;BME280;16643;43.158;25.302;2023-04-08T02:31:30;98301.44;;;6.49;97.19
29733;BME280;16643;43.158;25.302;2023-04-08T02:33:56;98278.41;;;6.31;95.86
29733;BME280;16643;43.158;25.302;2023-04-08T02:36:23;98279.28;;;6.29;95.47
29733;BME280;16643;43.158;25.302;2023-04-08T02:38:50;98283.50;;;6.36;96.02
29733;BME280;16643;43.158;25.302;2023-04-08T02:41:16;98264.72;;;6.22;94.42
29733;BME280;16643;43.158;25.302;2023-04-08T02:43:41;98281.88;;;6.29;94.34
29733;BME280;16643;43.158;25.302;2023-04-08T02:46:09;98282.88;;;6.14;95.08
29733;BME280;16643;43.158;25.302;2023-04-08T02:48:35;98279.28;;;6.27;96.46
29733;BME280;16643;43.158;25.302;2023-04-08T02:51:01;98280.25;;;6.20;95.45
29733;BME280;16643;43.158;25.302;2023-04-08T02:53:27;98283.56;;;6.30;95.09
29733;BME280;16643;43.158;25.302;2023-04-08T02:55:52;98288.69;;;6.33;96.17
29733;BME280;16643;43.158;25.302;2023-04-08T02:58:18;98276.69;;;6.29;96.23
29733;BME280;16643;43.158;25.302;2023-04-08T03:00:44;98312.66;;;6.45;96.52
29733;BME280;16643;43.158;25.302;2023-04-08T03:03:09;98301.53;;;6.39;96.08
29733;BME280;16643;43.158;25.302;2023-04-08T03:05:35;98309.31;;;6.34;96.00
29733;BME280;16643;43.158;25.302;2023-04-08T03:08:01;98270.69;;;6.27;95.73
29733;BME280;16643;43.158;25.302;2023-04-08T03:10:26;98281.03;;;6.25;96.24
29733;BME280;16643;43.158;25.302;2023-04-08T03:12:52;98288.78;;;6.22;96.26
29733;BME280;16643;43.158;25.302;2023-04-08T03:15:18;98257.25;;;5.97;96.27
29733;BME280;16643;43.158;25.302;2023-04-08T03:17:43;98289.72;;;6.16;97.71
29733;BME280;16643;43.158;25.302;2023-04-08T03:20:09;98276.84;;;6.12;97.78
29733;BME280;16643;43.158;25.302;2023-04-08T03:22:36;98299.19;;;6.16;99.27
29733;BME280;16643;43.158;25.302;2023-04-08T03:25:01;98292.44;;;6.00;100.00
29733;BME280;16643;43.158;25.302;2023-04-08T03:27:27;98305.34;;;5.98;100.00
29733;BME280;16643;43.158;25.302;2023-04-08T03:29:53;98319.22;;;5.87;100.00
29733;BME280;16643;43.158;25.302;2023-04-08T03:32:19;98296.09;;;5.74;100.00
29733;BME280;16643;43.158;25.302;2023-04-08T03:34:44;98302.97;;;5.72;100.00
29733;BME280;16643;43.158;25.302;2023-04-08T03:37:10;98333.84;;;5.81;100.00
29733;BME280;16643;43.158;25.302;2023-04-08T03:39:37;98311.66;;;5.64;100.00
29733;BME280;16643;43.158;25.302;2023-04-08T03:42:02;98342.56;;;5.65;100.00
29733;BME280;16643;43.158;25.302;2023-04-08T03:44:28;98333.94;;;5.68;100.00
29733;BME280;16643;43.158;25.302;2023-04-08T03:46:54;98331.41;;;5.63;100.00
29733;BME280;16643;43.158;25.302;2023-04-08T03:49:19;98316.84;;;5.56;100.00
29733;BME280;16643;43.158;25.302;2023-04-08T03:51:45;98326.34;;;5.53;100.00
29733;BME280;16643;43.158;25.302;2023-04-08T03:54:11;98326.31;;;5.54;100.00
29733;BME280;16643;43.158;25.302;2023-04-08T03:56:36;98332.28;;;5.62;100.00
29733;BME280;16643;43.158;25.302;2023-04-08T03:59:02;98318.59;;;5.53;100.00
29733;BME280;16643;43.158;25.302;2023-04-08T04:01:27;98326.28;;;5.56;100.00
29733;BME280;16643;43.158;25.302;2023-04-08T04:03:54;98333.09;;;5.69;100.00
29733;BME280;16643;43.158;25.302;2023-04-08T04:06:20;98344.25;;;5.68;100.00
29733;BME280;16643;43.158;25.302;2023-04-08T04:08:45;98336.44;;;5.80;100.00
29733;BME280;16643;43.158;25.302;2023-04-08T04:11:11;98341.59;;;5.81;100.00
29733;BME280;16643;43.158;25.302;2023-04-08T04:13:37;98321.84;;;5.77;100.00
29733;BME280;16643;43.158;25.302;2023-04-08T04:16:02;98332.06;;;5.96;100.00
29733;BME280;16643;43.158;25.302;2023-04-08T04:18:28;98328.63;;;5.95;100.00
29733;BME280;16643;43.158;25.302;2023-04-08T04:20:53;98314.91;;;5.86;100.00
29733;BME280;16643;43.158;25.302;2023-04-08T04:23:19;98350.97;;;5.95;100.00
29733;BME280;16643;43.158;25.302;2023-04-08T04:25:45;98320.94;;;5.86;100.00
29733;BME280;16643;43.158;25.302;2023-04-08T04:28:11;98330.28;;;5.99;100.00
29733;BME280;16643;43.158;25.302;2023-04-08T04:30:39;98343.19;;;5.99;100.00
29733;BME280;16643;43.158;25.302;2023-04-08T04:33:05;98341.44;;;6.01;100.00
29733;BME280;16643;43.158;25.302;2023-04-08T04:35:31;98337.13;;;6.08;100.00
29733;BME280;16643;43.158;25.302;2023-04-08T04:37:57;98325.06;;;6.08;100.00
29733;BME280;16643;43.158;25.302;2023-04-08T04:40:22;98320.78;;;6.07;100.00
29733;BME280;16643;43.158;25.302;2023-04-08T04:42:48;98349.84;;;6.26;100.00
29733;BME280;16643;43.158;25.302;2023-04-08T04:45:14;98349.84;;;6.26;100.00
29733;BME280;16643;43.158;25.302;2023-04-08T04:47:39;98348.13;;;6.24;100.00
29733;BME280;16643;43.158;25.302;2023-04-08T04:50:05;98341.25;;;6.24;100.00
29733;BME280;16643;43.158;25.302;2023-04-08T04:52:31;98354.13;;;6.30;100.00
29733;BME280;16643;43.158;25.302;2023-04-08T04:54:57;98357.47;;;6.37;100.00
29733;BME280;16643;43.158;25.302;2023-04-08T04:57:23;98351.53;;;6.32;100.00
29733;BME280;16643;43.158;25.302;2023-04-08T04:59:49;98326.53;;;6.32;100.00
29733;BME280;16643;43.158;25.302;2023-04-08T05:02:15;98323.16;;;6.30;100.00
29733;BME280;16643;43.158;25.302;2023-04-08T05:04:40;98318.78;;;6.34;100.00
29733;BME280;16643;43.158;25.302;2023-04-08T05:07:06;98333.38;;;6.39;100.00
29733;BME280;16643;43.158;25.302;2023-04-08T05:09:31;98349.63;;;6.49;100.00
29733;BME280;16643;43.158;25.302;2023-04-08T05:11:57;98352.16;;;6.53;100.00
29733;BME280;16643;43.158;25.302;2023-04-08T05:14:23;98340.06;;;6.55;100.00
29733;BME280;16643;43.158;25.302;2023-04-08T05:16:48;98362.41;;;6.61;100.00
29733;BME280;16643;43.158;25.302;2023-04-08T05:19:14;98334.00;;;6.60;100.00
29733;BME280;16643;43.158;25.302;2023-04-08T05:21:40;98345.03;;;6.75;100.00
29733;BME280;16643;43.158;25.302;2023-04-08T05:24:06;98358.75;;;6.79;100.00
29733;BME280;16643;43.158;25.302;2023-04-08T05:26:32;98345.09;;;6.71;99.39
29733;BME280;16643;43.158;25.302;2023-04-08T05:28:57;98347.63;;;6.77;99.84
29733;BME280;16643;43.158;25.302;2023-04-08T05:31:23;98341.53;;;6.79;100.00
29733;BME280;16643;43.158;25.302;2023-04-08T05:33:49;98333.91;;;6.69;100.00
29733;BME280;16643;43.158;25.302;2023-04-08T05:36:14;98345.84;;;6.79;100.00
29733;BME280;16643;43.158;25.302;2023-04-08T05:38:40;98343.31;;;6.76;99.54
29733;BME280;16643;43.158;25.302;2023-04-08T05:41:09;98350.09;;;6.86;100.00
29733;BME280;16643;43.158;25.302;2023-04-08T05:43:35;98353.28;;;7.05;100.00
29733;BME280;16643;43.158;25.302;2023-04-08T05:46:08;98347.13;;;7.16;100.00
29733;BME280;16643;43.158;25.302;2023-04-08T05:48:35;98360.03;;;7.18;100.00
29733;BME280;16643;43.158;25.302;2023-04-08T05:51:01;98363.50;;;7.15;100.00
29733;BME280;16643;43.158;25.302;2023-04-08T05:53:27;98362.72;;;7.10;100.00
29733;BME280;16643;43.158;25.302;2023-04-08T05:55:52;98345.38;;;7.20;99.88
29733;BME280;16643;43.158;25.302;2023-04-08T05:58:18;98352.09;;;7.33;99.71
29733;BME280;16643;43.158;25.302;2023-04-08T06:00:43;98355.25;;;7.52;99.14
29733;BME280;16643;43.158;25.302;2023-04-08T06:03:09;98341.28;;;7.65;99.62
29733;BME280;16643;43.158;25.302;2023-04-08T06:05:35;98360.00;;;7.81;96.51
29733;BME280;16643;43.158;25.302;2023-04-08T06:08:00;98347.91;;;7.83;96.71
29733;BME280;16643;43.158;25.302;2023-04-08T06:10:26;98342.72;;;7.84;94.16
29733;BME280;16643;43.158;25.302;2023-04-08T06:12:51;98360.69;;;7.92;92.46
29733;BME280;16643;43.158;25.302;2023-04-08T06:15:17;98345.25;;;7.89;93.50
29733;BME280;16643;43.158;25.302;2023-04-08T06:17:43;98354.50;;;8.02;91.97
29733;BME280;16643;43.158;25.302;2023-04-08T06:20:09;98372.31;;;8.22;92.55
29733;BME280;16643;43.158;25.302;2023-04-08T06:22:35;98369.25;;;8.49;90.81
29733;BME280;16643;43.158;25.302;2023-04-08T06:25:01;98350.28;;;8.47;89.27
29733;BME280;16643;43.158;25.302;2023-04-08T06:27:27;98352.13;;;8.44;87.48
29733;BME280;16643;43.158;25.302;2023-04-08T06:29:53;98361.63;;;8.42;86.36
29733;BME280;16643;43.158;25.302;2023-04-08T06:32:20;98342.88;;;8.26;84.93
29733;BME280;16643;43.158;25.302;2023-04-08T06:34:46;98350.28;;;8.47;85.03
29733;BME280;16643;43.158;25.302;2023-04-08T06:37:11;98365.91;;;8.46;83.81
29733;BME280;16643;43.158;25.302;2023-04-08T06:39:37;98380.38;;;8.56;84.64
29733;BME280;16643;43.158;25.302;2023-04-08T06:42:02;98365.84;;;8.47;84.81
29733;BME280;16643;43.158;25.302;2023-04-08T06:44:28;98364.03;;;8.52;83.72
29733;BME280;16643;43.158;25.302;2023-04-08T06:46:54;98377.31;;;8.34;82.97
29733;BME280;16643;43.158;25.302;2023-04-08T06:49:20;98365.97;;;8.40;82.84
29733;BME280;16643;43.158;25.302;2023-04-08T06:51:46;98359.66;;;8.56;85.47
29733;BME280;16643;43.158;25.302;2023-04-08T06:54:11;98359.22;;;8.80;84.98
29733;BME280;16643;43.158;25.302;2023-04-08T06:56:37;98364.13;;;8.92;81.35
29733;BME280;16643;43.158;25.302;2023-04-08T06:59:02;98354.84;;;8.81;81.73
29733;BME280;16643;43.158;25.302;2023-04-08T07:01:29;98382.59;;;8.76;87.07
29733;BME280;16643;43.158;25.302;2023-04-08T07:03:56;98376.13;;;8.52;89.06
29733;BME280;16643;43.158;25.302;2023-04-08T07:06:22;98362.16;;;8.60;88.89
29733;BME280;16643;43.158;25.302;2023-04-08T07:08:48;98396.41;;;8.76;87.98
29733;BME280;16643;43.158;25.302;2023-04-08T07:11:14;98353.94;;;8.37;88.46
29733;BME280;16643;43.158;25.302;2023-04-08T07:13:40;98351.78;;;8.60;90.06
29733;BME280;16643;43.158;25.302;2023-04-08T07:16:06;98375.41;;;8.91;89.68
29733;BME280;16643;43.158;25.302;2023-04-08T07:18:32;98377.75;;;9.03;87.78
29733;BME280;16643;43.158;25.302;2023-04-08T07:20:57;98382.03;;;9.04;85.66
29733;BME280;16643;43.158;25.302;2023-04-08T07:23:25;98372.19;;;9.22;87.41
29733;BME280;16643;43.158;25.302;2023-04-08T07:25:51;98387.88;;;9.57;86.22
29733;BME280;16643;43.158;25.302;2023-04-08T07:28:16;98387.13;;;9.52;82.63
29733;BME280;16643;43.158;25.302;2023-04-08T07:30:42;98357.06;;;9.42;88.11
29733;BME280;16643;43.158;25.302;2023-04-08T07:33:08;98383.16;;;9.74;84.88
29733;BME280;16643;43.158;25.302;2023-04-08T07:35:33;98367.41;;;9.82;82.38
29733;BME280;16643;43.158;25.302;2023-04-08T07:37:59;98360.97;;;9.98;81.74
29733;BME280;16643;43.158;25.302;2023-04-08T07:40:25;98385.81;;;10.10;80.92
29733;BME280;16643;43.158;25.302;2023-04-08T07:42:50;98395.84;;;10.27;80.78
29733;BME280;16643;43.158;25.302;2023-04-08T07:45:16;98384.75;;;10.17;78.63
29733;BME280;16643;43.158;25.302;2023-04-08T07:47:43;98391.38;;;10.32;81.70
29733;BME280;16643;43.158;25.302;2023-04-08T07:50:08;98383.22;;;10.45;80.79
29733;BME280;16643;43.158;25.302;2023-04-08T07:52:34;98387.56;;;10.79;80.58
29733;BME280;16643;43.158;25.302;2023-04-08T07:55:00;98368.53;;;10.77;77.12
29733;BME280;16643;43.158;25.302;2023-04-08T07:57:26;98383.25;;;10.78;75.74
29733;BME280;16643;43.158;25.302;2023-04-08T07:59:51;98344.06;;;10.51;75.90
29733;BME280;16643;43.158;25.302;2023-04-08T08:02:17;98386.47;;;10.86;77.99
29733;BME280;16643;43.158;25.302;2023-04-08T08:04:43;98366.84;;;11.07;77.46
29733;BME280;16643;43.158;25.302;2023-04-08T08:07:08;98370.06;;;11.16;79.81
29733;BME280;16643;43.158;25.302;2023-04-08T08:09:34;98388.31;;;11.44;75.04
29733;BME280;16643;43.158;25.302;2023-04-08T08:12:00;98380.56;;;11.72;73.14
29733;BME280;16643;43.158;25.302;2023-04-08T08:14:26;98373.66;;;11.99;73.24
29733;BME280;16643;43.158;25.302;2023-04-08T08:16:54;98371.94;;;11.98;69.79
29733;BME280;16643;43.158;25.302;2023-04-08T08:19:21;98395.34;;;11.99;73.12
29733;BME280;16643;43.158;25.302;2023-04-08T08:21:47;98384.78;;;12.04;69.68
29733;BME280;16643;43.158;25.302;2023-04-08T08:24:12;98376.22;;;12.00;71.51
29733;BME280;16643;43.158;25.302;2023-04-08T08:26:38;98377.63;;;12.11;74.47
29733;BME280;16643;43.158;25.302;2023-04-08T08:29:04;98385.25;;;12.17;72.46
29733;BME280;16643;43.158;25.302;2023-04-08T08:31:33;98385.06;;;12.23;73.31
29733;BME280;16643;43.158;25.302;2023-04-08T08:33:59;98380.00;;;12.45;72.31
29733;BME280;16643;43.158;25.302;2023-04-08T08:36:25;98398.59;;;12.60;71.54
29733;BME280;16643;43.158;25.302;2023-04-08T08:38:52;98393.75;;;12.75;68.33
29733;BME280;16643;43.158;25.302;2023-04-08T08:41:19;98384.53;;;12.64;68.42
29733;BME280;16643;43.158;25.302;2023-04-08T08:43:45;98404.31;;;12.19;67.12
29733;BME280;16643;43.158;25.302;2023-04-08T08:46:11;98386.78;;;12.50;69.77
29733;BME280;16643;43.158;25.302;2023-04-08T08:48:37;98385.72;;;12.81;70.66
29733;BME280;16643;43.158;25.302;2023-04-08T08:51:13;98404.03;;;13.04;70.23
29733;BME280;16643;43.158;25.302;2023-04-08T08:53:39;98407.25;;;13.10;67.56
29733;BME280;16643;43.158;25.302;2023-04-08T08:56:09;98403.44;;;13.21;67.07
29733;BME280;16643;43.158;25.302;2023-04-08T08:58:35;98393.38;;;13.35;66.78
29733;BME280;16643;43.158;25.302;2023-04-08T09:01:01;98401.25;;;13.33;64.15
29733;BME280;16643;43.158;25.302;2023-04-08T09:03:27;98384.06;;;13.28;65.60
29733;BME280;16643;43.158;25.302;2023-04-08T09:05:57;98390.34;;;13.45;64.71
29733;BME280;16643;43.158;25.302;2023-04-08T09:08:30;98400.19;;;13.39;64.69
29733;BME280;16643;43.158;25.302;2023-04-08T09:11:15;98394.31;;;13.32;66.12
29733;BME280;16643;43.158;25.302;2023-04-08T09:13:42;98399.44;;;13.10;67.96
29733;BME280;16643;43.158;25.302;2023-04-08T09:16:13;98394.50;;;13.03;68.73
29733;BME280;16643;43.158;25.302;2023-04-08T09:18:46;98399.53;;;12.58;70.03
29733;BME280;16643;43.158;25.302;2023-04-08T09:21:14;98371.34;;;12.43;70.38
29733;BME280;16643;43.158;25.302;2023-04-08T09:23:45;98383.91;;;12.58;70.56
29733;BME280;16643;43.158;25.302;2023-04-08T09:26:19;98400.38;;;12.85;69.72
29733;BME280;16643;43.158;25.302;2023-04-08T09:31:29;98404.78;;;13.07;68.12
29733;BME280;16643;43.158;25.302;2023-04-08T09:33:57;98397.44;;;12.94;67.61
29733;BME280;16643;43.158;25.302;2023-04-08T09:36:23;98398.28;;;12.94;69.38
29733;BME280;16643;43.158;25.302;2023-04-08T09:38:51;98402.69;;;13.19;68.59
29733;BME280;16643;43.158;25.302;2023-04-08T09:41:18;98400.69;;;13.49;69.66
29733;BME280;16643;43.158;25.302;2023-04-08T09:43:54;98414.63;;;13.24;68.18
29733;BME280;16643;43.158;25.302;2023-04-08T09:49:28;98408.81;;;13.41;66.87
29733;BME280;16643;43.158;25.302;2023-04-08T09:52:10;98408.94;;;13.38;67.05
29733;BME280;16643;43.158;25.302;2023-04-08T09:54:47;98388.94;;;13.37;66.25
29733;BME280;16643;43.158;25.302;2023-04-08T09:57:20;98398.63;;;13.57;67.46
29733;BME280;16643;43.158;25.302;2023-04-08T09:59:52;98390.59;;;13.63;65.60
29733;BME280;16643;43.158;25.302;2023-04-08T10:02:28;98371.06;;;13.50;64.31
29733;BME280;16643;43.158;25.302;2023-04-08T10:04:57;98392.63;;;13.55;65.98
29733;BME280;16643;43.158;25.302;2023-04-08T10:07:24;98370.84;;;13.77;63.87
29733;BME280;16643;43.158;25.302;2023-04-08T10:09:50;98397.81;;;13.78;63.06
29733;BME280;16643;43.158;25.302;2023-04-08T10:12:17;98397.31;;;13.68;64.42
29733;BME280;16643;43.158;25.302;2023-04-08T10:23:07;98379.00;;;13.23;65.15
29733;BME280;16643;43.158;25.302;2023-04-08T10:25:37;98364.84;;;12.81;65.32
29733;BME280;16643;43.158;25.302;2023-04-08T10:30:44;98372.53;;;12.85;69.00
29733;BME280;16643;43.158;25.302;2023-04-08T10:33:17;98379.78;;;12.76;68.94
29733;BME280;16643;43.158;25.302;2023-04-08T10:35:48;98388.84;;;12.90;69.67
29733;BME280;16643;43.158;25.302;2023-04-08T10:38:15;98382.94;;;12.60;70.22
29733;BME280;16643;43.158;25.302;2023-04-08T10:40:42;98358.19;;;12.47;70.00
29733;BME280;16643;43.158;25.302;2023-04-08T10:43:09;98383.19;;;12.53;67.84
29733;BME280;16643;43.158;25.302;2023-04-08T10:45:35;98366.53;;;12.57;67.03
29733;BME280;16643;43.158;25.302;2023-04-08T10:48:20;98371.19;;;12.73;67.73
29733;BME280;16643;43.158;25.302;2023-04-08T10:50:54;98375.16;;;13.08;69.81
29733;BME280;16643;43.158;25.302;2023-04-08T10:53:31;98369.06;;;13.33;66.18
29733;BME280;16643;43.158;25.302;2023-04-08T10:56:18;98384.97;;;13.50;64.69
29733;BME280;16643;43.158;25.302;2023-04-08T10:58:51;98383.38;;;13.46;62.26
29733;BME280;16643;43.158;25.302;2023-04-08T11:01:17;98379.66;;;13.53;64.98
29733;BME280;16643;43.158;25.302;2023-04-08T11:03:43;98380.81;;;13.44;65.23
29733;BME280;16643;43.158;25.302;2023-04-08T11:06:10;98350.69;;;13.11;65.54
29733;BME280;16643;43.158;25.302;2023-04-08T11:08:36;98366.25;;;13.39;64.87
29733;BME280;16643;43.158;25.302;2023-04-08T11:11:03;98369.09;;;13.55;63.48
29733;BME280;16643;43.158;25.302;2023-04-08T11:13:34;98381.34;;;13.54;63.46
29733;BME280;16643;43.158;25.302;2023-04-08T11:16:02;98354.28;;;13.55;61.46
29733;BME280;16643;43.158;25.302;2023-04-08T11:18:29;98358.16;;;13.45;62.63
29733;BME280;16643;43.158;25.302;2023-04-08T11:20:56;98322.88;;;13.35;61.93
29733;BME280;16643;43.158;25.302;2023-04-08T11:23:23;98347.66;;;13.47;62.32
29733;BME280;16643;43.158;25.302;2023-04-08T11:25:49;98359.38;;;13.36;59.97
29733;BME280;16643;43.158;25.302;2023-04-08T11:28:15;98367.75;;;13.21;59.04
29733;BME280;16643;43.158;25.302;2023-04-08T11:30:42;98368.81;;;13.40;60.62
29733;BME280;16643;43.158;25.302;2023-04-08T11:33:08;98349.47;;;13.44;62.54
29733;BME280;16643;43.158;25.302;2023-04-08T11:35:41;98367.94;;;13.40;60.38
29733;BME280;16643;43.158;25.302;2023-04-08T11:38:08;98347.91;;;13.17;60.86
29733;BME280;16643;43.158;25.302;2023-04-08T11:40:34;98349.56;;;13.20;61.57
29733;BME280;16643;43.158;25.302;2023-04-08T11:43:08;98347.09;;;13.15;61.59
29733;BME280;16643;43.158;25.302;2023-04-08T11:45:37;98346.16;;;13.18;60.75
29733;BME280;16643;43.158;25.302;2023-04-08T11:48:14;98339.69;;;13.03;61.86
29733;BME280;16643;43.158;25.302;2023-04-08T11:50:41;98341.41;;;13.04;61.60
29733;BME280;16643;43.158;25.302;2023-04-08T11:53:21;98347.75;;;12.97;61.62
29733;BME280;16643;43.158;25.302;2023-04-08T11:55:47;98348.22;;;13.08;59.75
29733;BME280;16643;43.158;25.302;2023-04-08T11:58:13;98358.31;;;13.19;62.02
29733;BME280;16643;43.158;25.302;2023-04-08T12:00:39;98363.34;;;13.23;60.52
29733;BME280;16643;43.158;25.302;2023-04-08T12:03:06;98349.06;;;13.08;60.69
29733;BME280;16643;43.158;25.302;2023-04-08T12:05:32;98349.75;;;13.14;62.27
29733;BME280;16643;43.158;25.302;2023-04-08T12:07:57;98351.88;;;13.27;62.73
29733;BME280;16643;43.158;25.302;2023-04-08T12:10:23;98333.66;;;13.26;62.73
29733;BME280;16643;43.158;25.302;2023-04-08T12:12:52;98342.50;;;13.22;60.52
29733;BME280;16643;43.158;25.302;2023-04-08T12:15:18;98336.13;;;13.05;62.29
29733;BME280;16643;43.158;25.302;2023-04-08T12:17:43;98325.84;;;13.01;61.61
29733;BME280;16643;43.158;25.302;2023-04-08T12:20:10;98343.19;;;13.27;62.54
29733;BME280;16643;43.158;25.302;2023-04-08T12:22:36;98329.56;;;13.42;63.74
29733;BME280;16643;43.158;25.302;2023-04-08T12:25:02;98343.94;;;13.54;61.72
29733;BME280;16643;43.158;25.302;2023-04-08T12:27:31;98340.63;;;13.49;60.65
29733;BME280;16643;43.158;25.302;2023-04-08T12:30:00;98313.97;;;13.17;61.20
29733;BME280;16643;43.158;25.302;2023-04-08T12:32:26;98293.97;;;12.93;61.03
29733;BME280;16643;43.158;25.302;2023-04-08T12:34:52;98337.84;;;13.06;60.83
29733;BME280;16643;43.158;25.302;2023-04-08T12:37:18;98327.09;;;13.16;61.58
29733;BME280;16643;43.158;25.302;2023-04-08T12:39:45;98310.91;;;13.29;63.24
29733;BME280;16643;43.158;25.302;2023-04-08T12:42:10;98335.88;;;13.36;61.31
29733;BME280;16643;43.158;25.302;2023-04-08T12:44:36;98312.28;;;13.16;62.60
29733;BME280;16643;43.158;25.302;2023-04-08T12:47:01;98296.31;;;13.24;62.83
29733;BME280;16643;43.158;25.302;2023-04-08T12:49:27;98339.78;;;13.48;64.57
29733;BME280;16643;43.158;25.302;2023-04-08T12:51:53;98322.19;;;13.53;64.66
29733;BME280;16643;43.158;25.302;2023-04-08T12:54:19;98323.47;;;13.65;64.42
29733;BME280;16643;43.158;25.302;2023-04-08T12:56:46;98310.53;;;13.62;62.81
29733;BME280;16643;43.158;25.302;2023-04-08T12:59:13;98326.25;;;13.82;62.19
29733;BME280;16643;43.158;25.302;2023-04-08T13:01:38;98325.41;;;13.81;62.50
29733;BME280;16643;43.158;25.302;2023-04-08T13:04:04;98300.13;;;13.82;63.48
29733;BME280;16643;43.158;25.302;2023-04-08T13:06:30;98304.19;;;13.89;62.86
29733;BME280;16643;43.158;25.302;2023-04-08T13:08:56;98317.19;;;13.91;61.63
29733;BME280;16643;43.158;25.302;2023-04-08T13:11:22;98320.00;;;13.86;61.36
29733;BME280;16643;43.158;25.302;2023-04-08T13:13:47;98309.13;;;13.75;62.89
29733;BME280;16643;43.158;25.302;2023-04-08T13:16:13;98313.72;;;13.68;63.62